Time;durP1;ratioP1;P1;durP2;ratioP2;P2;SDS_P1;SDS_P2;PMS_P1;PMS_P2;Temp;Humidity;BMP_temperature;BMP_pressure;BME280_temperature;BME280_humidity;BME280_pressure;Samples;Min_cycle;Max_cycle;Signal;HPM_P1;HPM_P2
2022/02/25 00:02:07;;;;;;;55.22;30.65;;;2.60;69.30;;;;;;5057392;28;20120;-43
2022/02/25 00:04:33;;;;;;;57.92;30.63;;;2.60;69.40;;;;;;5057828;28;20091;-44
2022/02/25 00:06:59;;;;;;;53.22;29.80;;;2.60;69.40;;;;;;5057142;28;20155;-40
2022/02/25 00:09:24;;;;;;;55.00;30.77;;;2.60;69.30;;;;;;5057404;28;20061;-44
2022/02/25 00:11:50;;;;;;;55.05;31.05;;;2.60;69.30;;;;;;5057359;28;20029;-38
2022/02/25 00:14:16;;;;;;;52.40;28.42;;;2.60;69.30;;;;;;5057441;28;20087;-38
2022/02/25 00:16:41;;;;;;;49.45;28.55;;;2.60;69.20;;;;;;5057123;28;20021;-39
2022/02/25 00:19:07;;;;;;;49.65;29.13;;;2.60;69.10;;;;;;5057210;28;20116;-44
2022/02/25 00:21:33;;;;;;;50.47;26.08;;;2.60;69.00;;;;;;5057578;28;20053;-38
2022/02/25 00:23:59;;;;;;;50.30;27.60;;;2.60;69.10;;;;;;5057252;28;20059;-38
2022/02/25 00:26:24;;;;;;;52.67;28.88;;;2.60;69.10;;;;;;5057367;28;20035;-45
2022/02/25 00:28:50;;;;;;;49.42;27.75;;;2.60;69.00;;;;;;5056980;28;20041;-39
2022/02/25 00:31:16;;;;;;;44.60;25.90;;;2.60;69.10;;;;;;5057008;28;20424;-39
2022/02/25 00:33:41;;;;;;;46.75;26.52;;;2.60;69.10;;;;;;5056569;28;20045;-45
2022/02/25 00:36:07;;;;;;;47.03;28.60;;;2.60;69.10;;;;;;5056789;28;20047;-38
2022/02/25 00:38:33;;;;;;;40.85;23.98;;;2.60;69.10;;;;;;5056601;28;20033;-47
2022/02/25 00:40:58;;;;;;;46.20;26.95;;;2.60;69.20;;;;;;5056972;28;20033;-38
2022/02/25 00:43:24;;;;;;;45.15;26.10;;;2.60;69.20;;;;;;5056740;28;20029;-38
2022/02/25 00:45:50;;;;;;;42.58;23.75;;;2.60;69.10;;;;;;5056671;28;20098;-38
2022/02/25 00:48:15;;;;;;;40.28;24.67;;;2.60;69.70;;;;;;5056357;28;20056;-39
2022/02/25 00:50:41;;;;;;;47.00;25.33;;;2.50;69.10;;;;;;5056661;28;20068;-47
2022/02/25 00:53:07;;;;;;;42.90;23.65;;;2.60;69.10;;;;;;5056368;28;20039;-39
2022/02/25 00:55:33;;;;;;;46.63;26.65;;;2.50;69.20;;;;;;5056465;28;20034;-38
2022/02/25 00:57:59;;;;;;;34.33;21.40;;;2.50;69.20;;;;;;5056237;28;20021;-38
2022/02/25 01:00:26;;;;;;;42.50;22.30;;;2.50;69.20;;;;;;5056710;28;20033;-44
2022/02/25 01:02:52;;;;;;;38.72;22.35;;;2.50;69.40;;;;;;5056141;28;20052;-45
2022/02/25 01:05:18;;;;;;;37.38;21.77;;;2.50;69.50;;;;;;5056831;28;20119;-46
2022/02/25 01:07:46;;;;;;;47.22;24.83;;;2.50;69.50;;;;;;5056206;28;20033;-38
2022/02/25 01:10:13;;;;;;;46.38;23.20;;;2.50;69.40;;;;;;5056069;28;20053;-38
2022/02/25 01:12:39;;;;;;;41.97;24.10;;;2.50;69.40;;;;;;5056355;28;20478;-38
2022/02/25 01:15:06;;;;;;;45.85;24.17;;;2.50;69.40;;;;;;5056464;28;20033;-38
2022/02/25 01:17:33;;;;;;;40.78;22.33;;;2.50;69.30;;;;;;5056197;28;20029;-38
2022/02/25 01:20:00;;;;;;;54.13;28.83;;;2.50;69.40;;;;;;5056461;28;20065;-38
2022/02/25 01:22:26;;;;;;;50.30;27.17;;;2.50;69.30;;;;;;5055908;28;20088;-38
2022/02/25 01:24:52;;;;;;;54.05;27.67;;;2.50;69.20;;;;;;5056566;28;20115;-38
2022/02/25 01:27:19;;;;;;;46.25;25.67;;;2.40;69.20;;;;;;5055755;28;20041;-46
2022/02/25 01:29:44;;;;;;;50.78;28.35;;;2.40;69.20;;;;;;5056371;28;20401;-38
2022/02/25 01:32:10;;;;;;;46.30;27.75;;;2.40;69.20;;;;;;5055471;28;20040;-44
2022/02/25 01:34:36;;;;;;;42.15;24.05;;;2.40;69.10;;;;;;5056305;28;20064;-45
2022/02/25 01:37:03;;;;;;;40.90;23.23;;;2.40;69.20;;;;;;5055512;28;20032;-44
2022/02/25 01:39:28;;;;;;;45.72;24.60;;;2.40;69.20;;;;;;5056211;28;20106;-47
2022/02/25 01:41:55;;;;;;;36.45;21.65;;;2.40;69.20;;;;;;5055679;28;20028;-38
2022/02/25 01:44:24;;;;;;;38.03;23.38;;;2.40;69.20;;;;;;5056180;28;20180;-46
2022/02/25 01:46:58;;;;;;;43.50;22.08;;;2.50;69.30;;;;;;5055804;28;20029;-38
2022/02/25 01:49:25;;;;;;;37.50;19.85;;;2.50;69.10;;;;;;5056300;28;20116;-44
2022/02/25 01:51:58;;;;;;;45.03;21.92;;;2.50;69.10;;;;;;5055600;28;20044;-44
2022/02/25 01:54:25;;;;;;;41.58;21.25;;;2.50;69.00;;;;;;5055556;28;20120;-44
2022/02/25 01:56:52;;;;;;;36.50;21.95;;;2.50;69.10;;;;;;5055711;28;20352;-38
2022/02/25 01:59:18;;;;;;;38.83;22.70;;;2.40;69.10;;;;;;5055980;28;20033;-38
2022/02/25 02:01:44;;;;;;;42.85;22.23;;;2.50;69.10;;;;;;5055736;28;20058;-38
2022/02/25 02:04:11;;;;;;;34.05;19.95;;;2.40;69.10;;;;;;5055508;28;20428;-38
2022/02/25 02:06:37;;;;;;;35.00;20.63;;;2.40;69.20;;;;;;5055656;28;20132;-38
2022/02/25 02:09:05;;;;;;;38.70;20.98;;;2.40;69.30;;;;;;5055494;28;20053;-44
2022/02/25 02:11:32;;;;;;;38.08;20.58;;;2.40;69.40;;;;;;5055632;28;20112;-47
2022/02/25 02:13:59;;;;;;;36.90;20.08;;;2.40;69.40;;;;;;5058474;28;20141;-39
2022/02/25 02:16:25;;;;;;;36.13;20.17;;;2.40;69.40;;;;;;5059899;28;20032;-44
2022/02/25 02:18:51;;;;;;;37.38;20.73;;;2.40;69.30;;;;;;5059533;28;20075;-38
2022/02/25 02:21:21;;;;;;;29.80;17.58;;;2.40;69.20;;;;;;5059356;28;20294;-45
2022/02/25 02:23:47;;;;;;;36.80;18.17;;;2.40;69.40;;;;;;5059436;28;20120;-38
2022/02/25 02:26:13;;;;;;;34.97;17.73;;;2.30;69.50;;;;;;5059642;28;20444;-45
2022/02/25 02:28:39;;;;;;;29.15;17.17;;;2.30;69.50;;;;;;5059144;28;20051;-38
2022/02/25 02:31:04;;;;;;;29.88;17.10;;;2.30;69.60;;;;;;5059505;28;20405;-44
2022/02/25 02:33:30;;;;;;;33.63;16.55;;;2.30;69.60;;;;;;5058904;28;20048;-38
2022/02/25 02:35:56;;;;;;;32.53;18.05;;;2.30;69.50;;;;;;5059547;28;20036;-48
2022/02/25 02:38:22;;;;;;;29.70;17.23;;;2.30;69.50;;;;;;5059225;28;20033;-38
2022/02/25 02:40:47;;;;;;;28.17;17.00;;;2.30;69.50;;;;;;5059364;28;20082;-45
2022/02/25 02:43:13;;;;;;;26.98;16.20;;;2.30;69.30;;;;;;5058876;28;20037;-45
2022/02/25 02:45:39;;;;;;;27.45;16.50;;;2.30;69.30;;;;;;5059148;28;20039;-38
2022/02/25 02:48:05;;;;;;;29.52;16.38;;;2.30;69.30;;;;;;5058647;28;20064;-39
2022/02/25 02:50:32;;;;;;;30.13;17.35;;;2.30;69.40;;;;;;5059138;28;20122;-45
2022/02/25 02:52:57;;;;;;;27.05;15.35;;;2.30;69.40;;;;;;5058790;28;20029;-44
2022/02/25 02:55:23;;;;;;;34.72;18.42;;;2.30;69.50;;;;;;5059253;28;20048;-43
2022/02/25 02:57:50;;;;;;;30.05;17.38;;;2.30;69.40;;;;;;5058865;28;20090;-38
2022/02/25 03:00:16;;;;;;;32.00;17.98;;;2.30;69.20;;;;;;5059124;28;20033;-49
2022/02/25 03:02:42;;;;;;;32.40;17.05;;;2.30;69.20;;;;;;5058806;28;20067;-45
2022/02/25 03:05:09;;;;;;;25.23;14.10;;;2.20;69.30;;;;;;5058911;28;20070;-38
2022/02/25 03:07:35;;;;;;;29.30;16.15;;;2.20;69.60;;;;;;5058438;28;20041;-39
2022/02/25 03:10:01;;;;;;;24.88;14.90;;;2.10;69.70;;;;;;5058478;28;20135;-44
2022/02/25 03:12:28;;;;;;;30.63;16.60;;;2.20;69.90;;;;;;5058111;28;20044;-45
2022/02/25 03:14:54;;;;;;;33.05;17.25;;;2.20;70.00;;;;;;5058386;28;20366;-47
2022/02/25 03:17:20;;;;;;;33.88;16.17;;;2.20;70.10;;;;;;5058502;28;20103;-45
2022/02/25 03:19:46;;;;;;;26.17;13.63;;;2.20;70.20;;;;;;5058784;28;20041;-46
2022/02/25 03:22:12;;;;;;;34.90;17.00;;;2.20;70.20;;;;;;5058096;28;20405;-38
2022/02/25 03:24:38;;;;;;;36.90;18.85;;;2.30;70.30;;;;;;5056964;28;20101;-38
2022/02/25 03:27:04;;;;;;;33.28;16.85;;;2.30;70.20;;;;;;5058392;28;20029;-38
2022/02/25 03:29:29;;;;;;;24.33;14.07;;;2.30;69.80;;;;;;5058459;28;20040;-46
2022/02/25 03:31:55;;;;;;;28.23;14.43;;;2.40;69.80;;;;;;5057935;28;20025;-38
2022/02/25 03:34:21;;;;;;;22.08;12.85;;;2.40;69.80;;;;;;5058214;28;20317;-46
2022/02/25 03:36:46;;;;;;;29.33;16.08;;;2.40;69.80;;;;;;5058337;28;20028;-38
2022/02/25 03:39:12;;;;;;;35.58;17.83;;;2.30;69.70;;;;;;5058286;28;20060;-45
2022/02/25 03:41:37;;;;;;;38.72;17.48;;;2.30;69.70;;;;;;5058117;28;20365;-45
2022/02/25 03:44:03;;;;;;;29.27;15.48;;;2.30;69.60;;;;;;5057919;28;20401;-38
2022/02/25 03:46:29;;;;;;;24.55;14.10;;;2.40;69.70;;;;;;5057915;28;20358;-38
2022/02/25 03:48:55;;;;;;;24.95;11.88;;;2.40;69.70;;;;;;5057817;28;20124;-45
2022/02/25 03:51:26;;;;;;;22.30;11.68;;;2.40;69.80;;;;;;5058014;28;20056;-38
2022/02/25 03:53:52;;;;;;;25.42;13.60;;;2.40;69.90;;;;;;5057751;28;20035;-38
2022/02/25 03:56:18;;;;;;;22.33;13.40;;;2.50;69.90;;;;;;5057680;28;20408;-44
2022/02/25 03:58:44;;;;;;;26.50;13.40;;;2.50;69.80;;;;;;5057554;28;20057;-42
2022/02/25 04:01:11;;;;;;;23.27;13.10;;;2.50;69.50;;;;;;5057558;28;20108;-38
2022/02/25 04:03:36;;;;;;;24.17;14.23;;;2.50;69.30;;;;;;5057442;28;20348;-44
2022/02/25 04:06:02;;;;;;;26.08;13.48;;;2.40;69.00;;;;;;5058074;28;20031;-44
2022/02/25 04:08:29;;;;;;;25.20;13.93;;;2.30;68.80;;;;;;5057144;28;20052;-38
2022/02/25 04:10:55;;;;;;;21.50;12.95;;;2.20;68.90;;;;;;5057684;28;20052;-38
2022/02/25 04:13:20;;;;;;;20.00;11.65;;;2.10;69.20;;;;;;5056974;28;20417;-37
2022/02/25 04:15:46;;;;;;;35.40;16.33;;;2.00;69.40;;;;;;5057324;28;20033;-44
2022/02/25 04:18:12;;;;;;;56.35;27.45;;;2.00;69.60;;;;;;5057265;28;20258;-45
2022/02/25 04:20:38;;;;;;;44.33;22.10;;;2.00;69.50;;;;;;5057497;28;20106;-46
2022/02/25 04:23:04;;;;;;;59.53;27.50;;;2.00;69.40;;;;;;5056853;28;20020;-38
2022/02/25 04:25:30;;;;;;;91.90;39.30;;;2.00;69.30;;;;;;5055998;28;20029;-38
2022/02/25 04:27:56;;;;;;;67.82;29.67;;;2.00;69.30;;;;;;5056801;28;20040;-38
2022/02/25 04:30:23;;;;;;;53.53;22.95;;;2.00;69.30;;;;;;5057500;28;20025;-38
2022/02/25 04:32:49;;;;;;;28.98;15.90;;;2.10;69.30;;;;;;5056913;28;20108;-38
2022/02/25 04:35:15;;;;;;;42.00;20.90;;;2.10;69.20;;;;;;5056857;28;20416;-38
2022/02/25 04:37:41;;;;;;;34.67;16.63;;;2.10;69.10;;;;;;5056709;28;20053;-38
2022/02/25 04:40:08;;;;;;;57.17;25.20;;;2.10;69.10;;;;;;5057256;28;20025;-45
2022/02/25 04:42:34;;;;;;;55.75;27.30;;;2.10;69.00;;;;;;5056561;28;20037;-44
2022/02/25 04:45:00;;;;;;;47.25;24.08;;;2.10;69.00;;;;;;5057009;28;20063;-42
2022/02/25 04:47:26;;;;;;;42.72;22.90;;;2.10;69.00;;;;;;5056888;28;20024;-43
2022/02/25 04:49:51;;;;;;;22.85;13.55;;;2.10;69.10;;;;;;5056978;28;20037;-43
2022/02/25 04:52:17;;;;;;;21.67;13.05;;;2.00;68.90;;;;;;5056459;28;20063;-38
2022/02/25 04:54:44;;;;;;;27.45;15.52;;;2.00;69.60;;;;;;5056730;28;20029;-45
2022/02/25 04:57:10;;;;;;;34.97;15.57;;;1.90;69.10;;;;;;5056071;28;20039;-38
2022/02/25 04:59:36;;;;;;;26.20;14.50;;;1.90;69.20;;;;;;5056772;28;20033;-46
2022/02/25 05:02:02;;;;;;;30.30;16.38;;;1.90;69.30;;;;;;5056111;28;20036;-44
2022/02/25 05:04:27;;;;;;;34.30;19.17;;;1.90;69.50;;;;;;5056680;28;20033;-38
2022/02/25 05:06:53;;;;;;;35.80;19.88;;;1.90;69.40;;;;;;5056423;28;20461;-43
2022/02/25 05:09:19;;;;;;;39.38;21.80;;;1.90;69.40;;;;;;5056061;28;20053;-45
2022/02/25 05:11:45;;;;;;;35.40;18.58;;;1.90;69.50;;;;;;5056231;28;20021;-43
2022/02/25 05:20:15;;;;;;;39.03;19.50;;;1.90;69.60;;;;;;5056142;28;20029;-45
2022/02/25 05:22:32;;;;;;;34.40;19.40;;;2.10;69.80;;;;;;5055786;28;20447;-38
2022/02/25 05:24:58;;;;;;;44.03;20.17;;;2.10;69.90;;;;;;5056268;28;20057;-43
2022/02/25 05:27:23;;;;;;;34.85;19.02;;;2.10;70.10;;;;;;5056036;28;20129;-44
2022/02/25 05:29:49;;;;;;;34.65;19.10;;;2.10;70.10;;;;;;5056245;28;20039;-44
2022/02/25 05:32:15;;;;;;;37.40;20.42;;;2.10;70.10;;;;;;5055517;28;20103;-39
2022/02/25 05:34:41;;;;;;;50.13;24.83;;;2.10;70.30;;;;;;5056120;28;20317;-38
2022/02/25 05:37:06;;;;;;;48.92;24.08;;;2.20;70.70;;;;;;5055420;28;20045;-38
2022/02/25 05:39:32;;;;;;;44.90;21.83;;;2.20;71.00;;;;;;5056038;28;20087;-46
2022/02/25 05:41:58;;;;;;;39.03;20.17;;;2.20;71.40;;;;;;5055780;28;20113;-38
2022/02/25 05:44:23;;;;;;;40.08;19.08;;;2.20;71.60;;;;;;5055941;28;20033;-46
2022/02/25 05:46:49;;;;;;;37.92;20.77;;;2.30;71.90;;;;;;5055204;28;20033;-44
2022/02/25 05:49:14;;;;;;;59.50;23.10;;;2.30;72.00;;;;;;5055518;28;20037;-39
2022/02/25 05:51:40;;;;;;;71.72;28.25;;;2.40;72.00;;;;;;5055527;28;20348;-43
2022/02/25 05:54:06;;;;;;;126.25;44.08;;;2.50;72.00;;;;;;5055235;28;20039;-37
2022/02/25 05:56:32;;;;;;;103.50;35.67;;;2.50;71.90;;;;;;5055618;28;20036;-37
2022/02/25 05:58:58;;;;;;;136.35;45.22;;;2.60;71.90;;;;;;5055242;28;20060;-45
2022/02/25 06:01:23;;;;;;;138.05;47.67;;;2.70;71.90;;;;;;5055347;28;20112;-45
2022/02/25 06:03:49;;;;;;;184.40;58.38;;;2.80;72.00;;;;;;5055428;28;20409;-45
2022/02/25 06:06:15;;;;;;;117.45;40.88;;;2.90;72.10;;;;;;5055562;28;20037;-44
2022/02/25 06:08:41;;;;;;;151.40;47.88;;;3.00;72.10;;;;;;5055051;28;20036;-45
2022/02/25 06:11:07;;;;;;;114.93;39.42;;;3.10;72.20;;;;;;5055337;28;20033;-38
2022/02/25 06:13:33;;;;;;;124.75;43.35;;;3.20;72.30;;;;;;5055328;28;20037;-52
2022/02/25 06:15:59;;;;;;;106.18;40.53;;;3.30;72.30;;;;;;5054622;28;20021;-37
2022/02/25 06:18:24;;;;;;;114.78;41.80;;;3.40;72.30;;;;;;5054693;28;20033;-38
2022/02/25 06:20:50;;;;;;;103.50;39.28;;;3.40;72.20;;;;;;5055381;28;20021;-37
2022/02/25 06:23:18;;;;;;;67.13;26.45;;;3.50;72.20;;;;;;5054718;28;20036;-44
2022/02/25 06:25:44;;;;;;;53.75;22.08;;;3.60;72.10;;;;;;5055624;28;20060;-38
2022/02/25 06:28:09;;;;;;;740.28;399.17;;;3.70;72.00;;;;;;5054880;28;20417;-38
2022/02/25 06:30:35;;;;;;;120.55;58.47;;;3.80;72.00;;;;;;5055269;28;20029;-38
2022/02/25 06:33:01;;;;;;;75.60;36.45;;;3.90;71.70;;;;;;5054790;28;20032;-43
2022/02/25 06:35:28;;;;;;;215.10;83.20;;;3.90;71.50;;;;;;5055495;28;20029;-43
2022/02/25 06:37:55;;;;;;;125.47;50.45;;;4.00;71.40;;;;;;5054579;28;20060;-38
2022/02/25 06:40:21;;;;;;;79.53;31.73;;;4.10;71.30;;;;;;5055455;28;20028;-43
2022/02/25 06:42:47;;;;;;;144.20;58.35;;;4.10;71.10;;;;;;5054747;28;20320;-41
2022/02/25 06:45:13;;;;;;;518.22;230.55;;;4.20;71.00;;;;;;5055397;28;20127;-45
2022/02/25 06:47:39;;;;;;;159.10;63.35;;;4.20;70.80;;;;;;5053567;28;20043;-38
2022/02/25 06:50:05;;;;;;;132.55;58.25;;;4.30;70.60;;;;;;5055193;28;20025;-38
2022/02/25 06:52:30;;;;;;;126.57;63.78;;;4.30;70.40;;;;;;5054372;28;20353;-38
2022/02/25 06:54:56;;;;;;;88.55;48.17;;;4.40;70.30;;;;;;5054747;28;20029;-38
2022/02/25 06:57:22;;;;;;;25.10;14.73;;;4.50;70.00;;;;;;5054613;28;20040;-38
2022/02/25 06:59:47;;;;;;;28.73;17.20;;;4.50;69.80;;;;;;5056285;28;20397;-44
2022/02/25 07:02:13;;;;;;;19.88;11.52;;;4.50;69.60;;;;;;5058027;28;20100;-38
2022/02/25 07:04:39;;;;;;;26.55;17.00;;;4.50;69.40;;;;;;5058832;28;20029;-38
2022/02/25 07:07:05;;;;;;;17.80;12.20;;;4.60;69.30;;;;;;5057997;28;20036;-38
2022/02/25 07:09:31;;;;;;;24.52;15.35;;;4.60;69.10;;;;;;5058085;28;20047;-43
2022/02/25 07:11:56;;;;;;;23.20;12.05;;;4.60;69.00;;;;;;5058160;28;20035;-38
2022/02/25 07:14:22;;;;;;;16.77;10.27;;;4.60;68.90;;;;;;5058276;28;20317;-43
2022/02/25 07:16:48;;;;;;;25.60;16.88;;;4.60;68.90;;;;;;5057800;28;20060;-38
2022/02/25 07:19:13;;;;;;;18.10;11.15;;;4.60;68.80;;;;;;5058126;28;20025;-44
2022/02/25 07:21:40;;;;;;;22.17;10.38;;;4.70;68.80;;;;;;5058118;28;20083;-38
2022/02/25 07:24:06;;;;;;;18.17;10.93;;;4.70;68.70;;;;;;5057602;28;20078;-37
2022/02/25 07:26:32;;;;;;;37.40;26.02;;;4.70;68.80;;;;;;5057663;28;20029;-38
2022/02/25 07:28:58;;;;;;;27.08;18.33;;;4.70;68.80;;;;;;5057755;28;20033;-46
2022/02/25 07:31:24;;;;;;;28.85;16.67;;;4.70;68.70;;;;;;5057984;28;20029;-38
2022/02/25 07:33:49;;;;;;;21.50;12.90;;;4.80;68.70;;;;;;5057848;28;20099;-45
2022/02/25 07:36:15;;;;;;;28.60;15.43;;;4.80;68.70;;;;;;5057810;28;20025;-44
2022/02/25 07:38:41;;;;;;;19.33;11.93;;;4.90;68.50;;;;;;5057726;28;20075;-44
2022/02/25 07:41:07;;;;;;;21.77;12.77;;;4.90;68.50;;;;;;5057703;28;20029;-37
2022/02/25 07:43:32;;;;;;;25.52;14.93;;;4.90;68.50;;;;;;5057512;28;20372;-38
2022/02/25 07:45:58;;;;;;;38.70;24.80;;;5.00;68.30;;;;;;5057313;28;20025;-38
2022/02/25 07:48:24;;;;;;;30.80;15.55;;;5.00;68.20;;;;;;5057491;28;20107;-44
2022/02/25 07:50:50;;;;;;;20.75;11.38;;;5.10;68.00;;;;;;5057060;28;20121;-49
2022/02/25 07:53:16;;;;;;;21.50;14.52;;;5.10;68.00;;;;;;5056430;28;20321;-45
2022/02/25 07:55:42;;;;;;;23.08;11.98;;;5.20;68.00;;;;;;5056435;28;20095;-38
2022/02/25 07:58:08;;;;;;;27.98;14.57;;;5.20;67.90;;;;;;5057291;28;20021;-38
2022/02/25 08:00:34;;;;;;;19.08;10.90;;;5.30;67.90;;;;;;5057330;28;20299;-43
2022/02/25 08:03:01;;;;;;;18.83;11.38;;;5.30;67.70;;;;;;5056921;28;20055;-38
2022/02/25 08:05:28;;;;;;;19.70;12.13;;;5.30;67.60;;;;;;5057494;28;20036;-46
2022/02/25 08:07:53;;;;;;;15.60;9.48;;;5.40;67.60;;;;;;5056573;28;20025;-38
2022/02/25 08:10:19;;;;;;;14.20;9.20;;;5.40;67.40;;;;;;5055864;28;20387;-44
2022/02/25 08:12:45;;;;;;;17.92;10.93;;;5.40;67.20;;;;;;5056267;28;20032;-43
2022/02/25 08:15:12;;;;;;;418.42;142.45;;;5.50;67.00;;;;;;5055300;28;20433;-44
2022/02/25 08:17:37;;;;;;;74.30;28.63;;;5.50;67.00;;;;;;5056629;28;20028;-38
2022/02/25 08:20:04;;;;;;;48.72;21.20;;;5.60;66.90;;;;;;5057067;28;20120;-38
2022/02/25 08:22:30;;;;;;;199.90;82.68;;;5.60;66.90;;;;;;5056463;28;20186;-38
2022/02/25 08:24:56;;;;;;;163.52;65.28;;;5.60;66.80;;;;;;5056571;28;20375;-38
2022/02/25 08:27:22;;;;;;;472.80;214.18;;;5.60;66.70;;;;;;5056007;28;20116;-45
2022/02/25 08:29:47;;;;;;;27.27;14.95;;;5.60;66.50;;;;;;5056840;28;20033;-44
2022/02/25 08:32:13;;;;;;;90.28;38.78;;;5.70;66.30;;;;;;5055888;28;20032;-43
2022/02/25 08:34:39;;;;;;;374.77;161.85;;;5.70;66.30;;;;;;5056645;28;20033;-45
2022/02/25 08:37:05;;;;;;;107.25;41.05;;;5.70;66.10;;;;;;5055962;28;20112;-43
2022/02/25 08:39:31;;;;;;;96.82;43.33;;;5.70;65.80;;;;;;5056883;28;20056;-43
2022/02/25 08:41:57;;;;;;;171.63;74.72;;;5.80;65.80;;;;;;5056131;28;20055;-47
2022/02/25 08:44:23;;;;;;;75.10;33.88;;;5.80;65.80;;;;;;5054913;28;20090;-38
2022/02/25 08:46:49;;;;;;;20.50;11.00;;;5.80;65.90;;;;;;5055353;28;20451;-38
2022/02/25 08:49:15;;;;;;;59.05;26.70;;;5.90;65.80;;;;;;5056364;28;20029;-45
2022/02/25 08:51:43;;;;;;;23.67;12.65;;;5.90;65.50;;;;;;5055777;28;20037;-45
2022/02/25 08:54:12;;;;;;;21.15;11.73;;;6.00;65.50;;;;;;5055474;28;20025;-46
2022/02/25 08:56:38;;;;;;;17.33;9.55;;;6.00;65.20;;;;;;5055782;28;20492;-38
2022/02/25 08:59:05;;;;;;;21.45;12.23;;;6.00;64.90;;;;;;5055872;28;20048;-37
2022/02/25 09:01:32;;;;;;;20.55;10.20;;;6.10;64.60;;;;;;5055765;28;20033;-38
2022/02/25 09:04:01;;;;;;;20.85;11.82;;;6.10;64.60;;;;;;5055691;28;20083;-38
2022/02/25 09:06:28;;;;;;;50.63;29.17;;;6.10;64.50;;;;;;5055406;28;20091;-43
2022/02/25 09:08:54;;;;;;;21.70;11.10;;;6.20;64.60;;;;;;5055692;28;20052;-38
2022/02/25 09:11:19;;;;;;;19.95;9.27;;;6.20;64.60;;;;;;5055685;28;20051;-36
2022/02/25 09:13:45;;;;;;;14.73;9.25;;;6.30;64.30;;;;;;5055410;28;20367;-43
2022/02/25 09:16:11;;;;;;;18.70;10.40;;;6.30;64.10;;;;;;5055317;28;20035;-43
2022/02/25 09:18:38;;;;;;;21.52;11.20;;;6.30;63.90;;;;;;5055053;28;20039;-38
2022/02/25 09:21:04;;;;;;;19.98;10.90;;;6.40;64.00;;;;;;5055810;28;20036;-38
2022/02/25 09:23:31;;;;;;;16.38;9.40;;;6.40;63.80;;;;;;5055381;28;20029;-44
2022/02/25 09:25:57;;;;;;;14.43;9.70;;;6.50;63.40;;;;;;5055851;28;20120;-38
2022/02/25 09:28:24;;;;;;;27.15;14.30;;;6.60;63.00;;;;;;5055678;28;20108;-45
2022/02/25 09:30:50;;;;;;;20.27;11.05;;;6.70;62.90;;;;;;5055568;28;20044;-43
2022/02/25 09:33:16;;;;;;;22.48;11.10;;;6.70;62.70;;;;;;5055310;28;20082;-43
2022/02/25 09:35:41;;;;;;;19.30;12.05;;;6.70;62.30;;;;;;5055484;28;20024;-38
2022/02/25 09:38:07;;;;;;;16.05;9.38;;;6.70;62.10;;;;;;5055268;28;20032;-44
2022/02/25 09:40:33;;;;;;;21.65;10.18;;;6.80;62.10;;;;;;5055314;28;20029;-43
2022/02/25 09:42:59;;;;;;;23.33;11.27;;;6.80;62.20;;;;;;5055513;28;20325;-38
2022/02/25 09:45:25;;;;;;;21.55;11.32;;;6.90;62.30;;;;;;5055643;28;20032;-48
2022/02/25 09:47:51;;;;;;;21.67;10.50;;;6.90;62.40;;;;;;5055347;28;20040;-38
2022/02/25 09:50:19;;;;;;;23.85;11.45;;;7.00;62.20;;;;;;5055652;28;20033;-46
2022/02/25 09:52:46;;;;;;;22.10;12.15;;;7.00;62.00;;;;;;5055306;28;20352;-44
2022/02/25 09:55:28;;;;;;;28.08;15.50;;;7.10;61.90;;;;;;5055573;28;20024;-43
2022/02/25 09:57:55;;;;;;;18.90;11.65;;;7.20;62.00;;;;;;5055057;28;20022;-44
2022/02/25 10:00:21;;;;;;;19.85;12.15;;;7.20;62.10;;;;;;5054942;28;20048;-45
2022/02/25 10:02:53;;;;;;;22.90;13.30;;;7.30;62.00;;;;;;5055225;28;20112;-39
2022/02/25 10:05:22;;;;;;;20.75;11.50;;;7.50;61.80;;;;;;5055306;28;20032;-38
2022/02/25 10:07:48;;;;;;;20.55;11.93;;;7.50;61.70;;;;;;5053837;28;20025;-38
2022/02/25 10:10:15;;;;;;;19.65;11.43;;;7.60;61.60;;;;;;5054583;28;20049;-38
2022/02/25 10:13:07;;;;;;;61.15;34.17;;;7.60;61.40;;;;;;5054643;28;20082;-39
2022/02/25 10:15:36;;;;;;;35.38;23.90;;;7.70;61.30;;;;;;5054612;28;20037;-38
2022/02/25 10:18:09;;;;;;;34.63;14.60;;;7.80;61.20;;;;;;5054861;28;20032;-39
2022/02/25 10:20:35;;;;;;;27.63;13.13;;;7.80;61.20;;;;;;5055142;28;20025;-38
2022/02/25 10:23:02;;;;;;;25.15;15.25;;;7.90;61.10;;;;;;5055208;28;20332;-46
2022/02/25 10:25:32;;;;;;;36.70;21.67;;;8.00;60.90;;;;;;5055189;28;20040;-38
2022/02/25 10:27:58;;;;;;;85.35;43.70;;;8.00;60.60;;;;;;5055115;28;20316;-38
2022/02/25 10:30:24;;;;;;;40.40;20.33;;;8.00;60.40;;;;;;5055404;28;20041;-47
2022/02/25 10:32:55;;;;;;;39.58;21.42;;;8.00;60.30;;;;;;5054578;28;20036;-44
2022/02/25 10:35:40;;;;;;;25.92;16.52;;;8.10;60.20;;;;;;5058917;28;20051;-45
2022/02/25 10:38:14;;;;;;;23.60;17.30;;;8.10;60.00;;;;;;5058632;28;20460;-44
2022/02/25 10:40:43;;;;;;;55.40;37.40;;;8.10;59.80;;;;;;5058552;28;20425;-47
2022/02/25 10:43:23;;;;;;;255.25;132.07;;;8.10;59.80;;;;;;5058568;28;20100;-38
2022/02/25 10:45:55;;;;;;;63.67;33.78;;;8.20;59.70;;;;;;5058740;28;20037;-46
2022/02/25 10:48:23;;;;;;;30.35;16.83;;;8.20;59.50;;;;;;5058262;28;20025;-46
2022/02/25 10:50:53;;;;;;;35.00;18.55;;;8.20;59.20;;;;;;5057959;28;20036;-38
2022/02/25 10:53:35;;;;;;;24.45;11.98;;;8.20;59.00;;;;;;5058774;28;20029;-44
2022/02/25 10:56:11;;;;;;;34.40;18.58;;;8.30;59.20;;;;;;5058433;28;20118;-38
2022/02/25 10:58:47;;;;;;;45.42;20.48;;;8.30;59.10;;;;;;5058131;28;20021;-38
2022/02/25 11:01:15;;;;;;;72.53;41.03;;;8.40;58.90;;;;;;5058109;28;20147;-38
2022/02/25 11:03:41;;;;;;;26.98;13.07;;;8.40;58.80;;;;;;5058437;28;20021;-38
2022/02/25 11:06:09;;;;;;;20.73;9.48;;;8.50;58.50;;;;;;5058238;28;20079;-38
2022/02/25 11:08:36;;;;;;;12.07;6.93;;;8.50;58.40;;;;;;5057930;28;20612;-44
2022/02/25 11:11:02;;;;;;;13.90;7.90;;;8.60;58.10;;;;;;5058306;28;20029;-43
2022/02/25 11:13:29;;;;;;;62.55;43.40;;;8.70;57.90;;;;;;5058196;28;20044;-43
2022/02/25 11:15:56;;;;;;;30.13;19.17;;;8.70;57.70;;;;;;5057374;28;20060;-43
2022/02/25 11:18:22;;;;;;;27.27;14.05;;;8.80;57.50;;;;;;5057709;28;20017;-44
2022/02/25 11:20:50;;;;;;;25.77;15.93;;;8.80;57.00;;;;;;5057695;28;20321;-38
2022/02/25 11:23:17;;;;;;;47.05;24.25;;;8.90;56.70;;;;;;5057504;28;20467;-44
2022/02/25 11:25:45;;;;;;;23.70;13.85;;;8.90;56.50;;;;;;5055063;28;20048;-38
2022/02/25 11:28:11;;;;;;;20.60;10.68;;;9.00;56.00;;;;;;5057071;28;20075;-38
2022/02/25 11:30:55;;;;;;;19.05;9.63;;;9.10;55.70;;;;;;5057523;28;20340;-38
2022/02/25 11:33:23;;;;;;;17.95;10.10;;;9.20;55.30;;;;;;5057227;28;20029;-34
